sensor_id;sensor_type;location;lat;lon;timestamp;P1;durP1;ratioP1;P2;durP2;ratioP2
19127;SDS011;9696;53.686;10.094;2022-12-18T00:00:27;17.43;;;8.00;;
19127;SDS011;9696;53.686;10.094;2022-12-18T00:02:56;20.87;;;9.83;;
19127;SDS011;9696;53.686;10.094;2022-12-18T00:05:25;23.87;;;10.40;;
19127;SDS011;9696;53.686;10.094;2022-12-18T00:07:55;8.53;;;4.83;;
19127;SDS011;9696;53.686;10.094;2022-12-18T00:10:24;16.80;;;7.73;;
19127;SDS011;9696;53.686;10.094;2022-12-18T00:12:53;13.10;;;7.90;;
19127;SDS011;9696;53.686;10.094;2022-12-18T00:15:23;22.33;;;8.13;;
19127;SDS011;9696;53.686;10.094;2022-12-18T00:17:52;18.77;;;7.83;;
19127;SDS011;9696;53.686;10.094;2022-12-18T00:20:22;13.40;;;6.17;;
19127;SDS011;9696;53.686;10.094;2022-12-18T00:22:52;16.73;;;5.97;;
19127;SDS011;9696;53.686;10.094;2022-12-18T00:25:22;13.83;;;6.63;;
19127;SDS011;9696;53.686;10.094;2022-12-18T00:27:51;14.47;;;7.67;;
19127;SDS011;9696;53.686;10.094;2022-12-18T00:30:20;13.10;;;6.37;;
19127;SDS011;9696;53.686;10.094;2022-12-18T00:32:51;16.90;;;6.63;;
19127;SDS011;9696;53.686;10.094;2022-12-18T00:35:20;14.73;;;7.67;;
19127;SDS011;9696;53.686;10.094;2022-12-18T00:37:49;19.87;;;9.07;;
19127;SDS011;9696;53.686;10.094;2022-12-18T00:40:18;17.23;;;8.63;;
19127;SDS011;9696;53.686;10.094;2022-12-18T00:42:48;21.47;;;8.57;;
19127;SDS011;9696;53.686;10.094;2022-12-18T00:45:25;16.40;;;7.20;;
19127;SDS011;9696;53.686;10.094;2022-12-18T00:47:58;13.70;;;6.80;;
19127;SDS011;9696;53.686;10.094;2022-12-18T00:50:28;15.37;;;5.73;;
19127;SDS011;9696;53.686;10.094;2022-12-18T00:52:59;10.30;;;6.10;;
19127;SDS011;9696;53.686;10.094;2022-12-18T00:55:29;21.93;;;9.07;;
19127;SDS011;9696;53.686;10.094;2022-12-18T00:57:58;17.00;;;7.03;;
19127;SDS011;9696;53.686;10.094;2022-12-18T01:00:27;8.87;;;5.17;;
19127;SDS011;9696;53.686;10.094;2022-12-18T01:02:56;13.57;;;7.00;;
19127;SDS011;9696;53.686;10.094;2022-12-18T01:05:27;13.07;;;6.43;;
19127;SDS011;9696;53.686;10.094;2022-12-18T01:07:56;12.00;;;5.57;;
19127;SDS011;9696;53.686;10.094;2022-12-18T01:10:25;9.03;;;5.47;;
19127;SDS011;9696;53.686;10.094;2022-12-18T01:12:57;17.30;;;5.97;;
19127;SDS011;9696;53.686;10.094;2022-12-18T01:15:26;15.97;;;7.50;;
19127;SDS011;9696;53.686;10.094;2022-12-18T01:17:55;15.10;;;6.23;;
19127;SDS011;9696;53.686;10.094;2022-12-18T01:20:27;13.30;;;6.23;;
19127;SDS011;9696;53.686;10.094;2022-12-18T01:22:57;13.20;;;6.87;;
19127;SDS011;9696;53.686;10.094;2022-12-18T01:25:26;14.37;;;6.70;;
19127;SDS011;9696;53.686;10.094;2022-12-18T01:27:55;14.67;;;5.50;;
19127;SDS011;9696;53.686;10.094;2022-12-18T01:30:24;11.20;;;5.57;;
19127;SDS011;9696;53.686;10.094;2022-12-18T01:32:53;11.20;;;4.83;;
19127;SDS011;9696;53.686;10.094;2022-12-18T01:35:22;33.83;;;5.40;;
19127;SDS011;9696;53.686;10.094;2022-12-18T01:37:55;13.13;;;5.03;;
19127;SDS011;9696;53.686;10.094;2022-12-18T01:40:24;16.23;;;6.87;;
19127;SDS011;9696;53.686;10.094;2022-12-18T01:42:53;11.00;;;5.53;;
19127;SDS011;9696;53.686;10.094;2022-12-18T01:45:26;10.83;;;5.40;;
19127;SDS011;9696;53.686;10.094;2022-12-18T01:47:56;18.77;;;9.87;;
19127;SDS011;9696;53.686;10.094;2022-12-18T01:50:28;17.03;;;7.07;;
19127;SDS011;9696;53.686;10.094;2022-12-18T01:53:03;22.07;;;7.90;;
19127;SDS011;9696;53.686;10.094;2022-12-18T01:55:38;15.67;;;7.73;;
19127;SDS011;9696;53.686;10.094;2022-12-18T01:58:13;11.97;;;5.80;;
19127;SDS011;9696;53.686;10.094;2022-12-18T02:00:43;18.20;;;6.90;;
19127;SDS011;9696;53.686;10.094;2022-12-18T02:03:12;17.60;;;8.53;;
19127;SDS011;9696;53.686;10.094;2022-12-18T02:05:46;14.87;;;6.50;;
19127;SDS011;9696;53.686;10.094;2022-12-18T02:08:25;13.77;;;6.80;;
19127;SDS011;9696;53.686;10.094;2022-12-18T02:11:02;13.73;;;7.13;;
19127;SDS011;9696;53.686;10.094;2022-12-18T02:13:38;22.83;;;6.53;;
19127;SDS011;9696;53.686;10.094;2022-12-18T02:16:17;9.17;;;5.47;;
19127;SDS011;9696;53.686;10.094;2022-12-18T02:18:53;8.43;;;4.93;;
19127;SDS011;9696;53.686;10.094;2022-12-18T02:21:29;9.40;;;4.93;;
19127;SDS011;9696;53.686;10.094;2022-12-18T02:24:11;15.50;;;5.83;;
19127;SDS011;9696;53.686;10.094;2022-12-18T02:26:49;30.73;;;5.60;;
19127;SDS011;9696;53.686;10.094;2022-12-18T02:29:25;11.57;;;5.13;;
19127;SDS011;9696;53.686;10.094;2022-12-18T02:32:00;9.40;;;4.87;;
19127;SDS011;9696;53.686;10.094;2022-12-18T02:34:34;8.40;;;3.73;;
19127;SDS011;9696;53.686;10.094;2022-12-18T02:37:12;10.30;;;5.17;;
19127;SDS011;9696;53.686;10.094;2022-12-18T02:39:44;12.10;;;6.10;;
19127;SDS011;9696;53.686;10.094;2022-12-18T02:42:18;9.60;;;5.43;;
19127;SDS011;9696;53.686;10.094;2022-12-18T02:44:49;11.60;;;5.23;;
19127;SDS011;9696;53.686;10.094;2022-12-18T02:47:24;10.30;;;6.10;;
19127;SDS011;9696;53.686;10.094;2022-12-18T02:49:57;18.33;;;6.03;;
19127;SDS011;9696;53.686;10.094;2022-12-18T02:52:35;10.27;;;5.13;;
19127;SDS011;9696;53.686;10.094;2022-12-18T02:55:16;10.40;;;5.60;;
19127;SDS011;9696;53.686;10.094;2022-12-18T02:58:01;18.97;;;6.13;;
19127;SDS011;9696;53.686;10.094;2022-12-18T03:00:39;8.03;;;4.20;;
19127;SDS011;9696;53.686;10.094;2022-12-18T03:03:13;10.03;;;4.93;;
19127;SDS011;9696;53.686;10.094;2022-12-18T03:05:48;11.70;;;6.60;;
19127;SDS011;9696;53.686;10.094;2022-12-18T03:08:21;13.63;;;5.97;;
19127;SDS011;9696;53.686;10.094;2022-12-18T03:10:57;7.17;;;4.37;;
19127;SDS011;9696;53.686;10.094;2022-12-18T03:13:34;15.63;;;7.13;;
19127;SDS011;9696;53.686;10.094;2022-12-18T03:16:09;13.50;;;6.67;;
19127;SDS011;9696;53.686;10.094;2022-12-18T03:18:45;15.20;;;6.07;;
19127;SDS011;9696;53.686;10.094;2022-12-18T03:21:17;20.20;;;5.73;;
19127;SDS011;9696;53.686;10.094;2022-12-18T03:23:51;15.43;;;7.63;;
19127;SDS011;9696;53.686;10.094;2022-12-18T03:26:25;5.73;;;3.73;;
19127;SDS011;9696;53.686;10.094;2022-12-18T03:29:02;9.33;;;4.43;;
19127;SDS011;9696;53.686;10.094;2022-12-18T03:31:36;6.10;;;3.57;;
19127;SDS011;9696;53.686;10.094;2022-12-18T03:34:09;17.20;;;4.70;;
19127;SDS011;9696;53.686;10.094;2022-12-18T03:36:45;13.10;;;4.53;;
19127;SDS011;9696;53.686;10.094;2022-12-18T03:39:14;15.40;;;5.03;;
19127;SDS011;9696;53.686;10.094;2022-12-18T03:41:52;15.93;;;5.40;;
19127;SDS011;9696;53.686;10.094;2022-12-18T03:44:40;12.20;;;4.40;;
19127;SDS011;9696;53.686;10.094;2022-12-18T03:47:20;12.10;;;5.07;;
19127;SDS011;9696;53.686;10.094;2022-12-18T03:49:59;9.83;;;4.80;;
19127;SDS011;9696;53.686;10.094;2022-12-18T03:52:41;11.10;;;5.30;;
19127;SDS011;9696;53.686;10.094;2022-12-18T03:55:15;15.93;;;6.73;;
19127;SDS011;9696;53.686;10.094;2022-12-18T03:57:50;11.73;;;5.03;;
19127;SDS011;9696;53.686;10.094;2022-12-18T04:00:28;9.13;;;5.10;;
19127;SDS011;9696;53.686;10.094;2022-12-18T04:03:05;6.40;;;4.03;;
19127;SDS011;9696;53.686;10.094;2022-12-18T04:05:43;10.57;;;4.63;;
19127;SDS011;9696;53.686;10.094;2022-12-18T04:08:14;12.53;;;4.17;;
19127;SDS011;9696;53.686;10.094;2022-12-18T04:10:51;7.83;;;5.10;;
19127;SDS011;9696;53.686;10.094;2022-12-18T04:13:24;10.27;;;4.30;;
19127;SDS011;9696;53.686;10.094;2022-12-18T04:15:59;6.27;;;3.13;;
19127;SDS011;9696;53.686;10.094;2022-12-18T04:18:29;15.60;;;6.10;;
19127;SDS011;9696;53.686;10.094;2022-12-18T04:21:00;11.83;;;3.60;;
19127;SDS011;9696;53.686;10.094;2022-12-18T04:23:29;10.23;;;4.30;;
19127;SDS011;9696;53.686;10.094;2022-12-18T04:25:58;7.33;;;4.57;;
19127;SDS011;9696;53.686;10.094;2022-12-18T04:28:53;7.07;;;2.83;;
19127;SDS011;9696;53.686;10.094;2022-12-18T04:31:23;7.47;;;4.20;;
19127;SDS011;9696;53.686;10.094;2022-12-18T04:33:53;9.17;;;3.77;;
19127;SDS011;9696;53.686;10.094;2022-12-18T04:36:22;11.17;;;3.77;;
19127;SDS011;9696;53.686;10.094;2022-12-18T04:38:52;16.07;;;6.40;;
19127;SDS011;9696;53.686;10.094;2022-12-18T04:41:21;10.63;;;5.23;;
19127;SDS011;9696;53.686;10.094;2022-12-18T04:43:52;9.83;;;5.00;;
19127;SDS011;9696;53.686;10.094;2022-12-18T04:46:21;3.83;;;3.03;;
19127;SDS011;9696;53.686;10.094;2022-12-18T04:48:52;13.00;;;4.67;;
19127;SDS011;9696;53.686;10.094;2022-12-18T04:51:21;12.13;;;6.10;;
19127;SDS011;9696;53.686;10.094;2022-12-18T04:53:52;10.87;;;4.73;;
19127;SDS011;9696;53.686;10.094;2022-12-18T04:56:22;16.03;;;5.83;;
19127;SDS011;9696;53.686;10.094;2022-12-18T04:58:51;8.90;;;3.60;;
19127;SDS011;9696;53.686;10.094;2022-12-18T05:01:20;7.60;;;3.70;;
19127;SDS011;9696;53.686;10.094;2022-12-18T05:03:55;6.20;;;3.60;;
19127;SDS011;9696;53.686;10.094;2022-12-18T05:06:24;5.80;;;3.33;;
19127;SDS011;9696;53.686;10.094;2022-12-18T05:08:53;12.23;;;3.90;;
19127;SDS011;9696;53.686;10.094;2022-12-18T05:11:22;6.40;;;3.60;;
19127;SDS011;9696;53.686;10.094;2022-12-18T05:13:52;7.77;;;4.57;;
19127;SDS011;9696;53.686;10.094;2022-12-18T05:16:24;7.50;;;4.30;;
19127;SDS011;9696;53.686;10.094;2022-12-18T05:18:54;8.17;;;4.00;;
19127;SDS011;9696;53.686;10.094;2022-12-18T05:21:23;12.17;;;5.13;;
19127;SDS011;9696;53.686;10.094;2022-12-18T05:23:53;9.60;;;4.97;;
19127;SDS011;9696;53.686;10.094;2022-12-18T05:26:22;10.83;;;5.70;;
19127;SDS011;9696;53.686;10.094;2022-12-18T05:28:51;7.00;;;4.10;;
19127;SDS011;9696;53.686;10.094;2022-12-18T05:31:21;6.63;;;3.60;;
19127;SDS011;9696;53.686;10.094;2022-12-18T05:33:51;7.20;;;4.10;;
19127;SDS011;9696;53.686;10.094;2022-12-18T05:36:22;4.60;;;3.07;;
19127;SDS011;9696;53.686;10.094;2022-12-18T05:38:51;6.67;;;3.33;;
19127;SDS011;9696;53.686;10.094;2022-12-18T05:41:20;13.80;;;4.17;;
19127;SDS011;9696;53.686;10.094;2022-12-18T05:43:49;9.03;;;4.40;;
19127;SDS011;9696;53.686;10.094;2022-12-18T05:46:18;14.33;;;4.40;;
19127;SDS011;9696;53.686;10.094;2022-12-18T05:48:47;25.83;;;3.37;;
19127;SDS011;9696;53.686;10.094;2022-12-18T05:51:18;37.67;;;5.50;;
19127;SDS011;9696;53.686;10.094;2022-12-18T05:53:49;5.03;;;4.20;;
19127;SDS011;9696;53.686;10.094;2022-12-18T05:56:19;4.97;;;3.60;;
19127;SDS011;9696;53.686;10.094;2022-12-18T05:58:51;11.47;;;4.07;;
19127;SDS011;9696;53.686;10.094;2022-12-18T06:01:21;6.60;;;3.53;;
19127;SDS011;9696;53.686;10.094;2022-12-18T06:03:52;11.70;;;3.03;;
19127;SDS011;9696;53.686;10.094;2022-12-18T06:06:22;13.60;;;4.00;;
19127;SDS011;9696;53.686;10.094;2022-12-18T06:08:54;8.27;;;3.77;;
19127;SDS011;9696;53.686;10.094;2022-12-18T06:11:24;6.17;;;3.37;;
19127;SDS011;9696;53.686;10.094;2022-12-18T06:13:55;9.97;;;4.67;;
19127;SDS011;9696;53.686;10.094;2022-12-18T06:16:26;8.77;;;4.23;;
19127;SDS011;9696;53.686;10.094;2022-12-18T06:18:57;6.40;;;3.07;;
19127;SDS011;9696;53.686;10.094;2022-12-18T06:21:27;8.27;;;4.50;;
19127;SDS011;9696;53.686;10.094;2022-12-18T06:23:59;13.63;;;5.40;;
19127;SDS011;9696;53.686;10.094;2022-12-18T06:26:28;7.70;;;4.13;;
19127;SDS011;9696;53.686;10.094;2022-12-18T06:28:57;8.77;;;4.07;;
19127;SDS011;9696;53.686;10.094;2022-12-18T06:31:27;17.73;;;7.47;;
19127;SDS011;9696;53.686;10.094;2022-12-18T06:33:56;6.70;;;2.90;;
19127;SDS011;9696;53.686;10.094;2022-12-18T06:36:29;9.23;;;4.13;;
19127;SDS011;9696;53.686;10.094;2022-12-18T06:39:00;18.67;;;8.43;;
19127;SDS011;9696;53.686;10.094;2022-12-18T06:41:29;9.13;;;4.77;;
19127;SDS011;9696;53.686;10.094;2022-12-18T06:43:58;20.13;;;9.03;;
19127;SDS011;9696;53.686;10.094;2022-12-18T06:46:28;8.30;;;4.97;;
19127;SDS011;9696;53.686;10.094;2022-12-18T06:48:57;8.77;;;4.30;;
19127;SDS011;9696;53.686;10.094;2022-12-18T06:51:26;7.97;;;4.80;;
19127;SDS011;9696;53.686;10.094;2022-12-18T06:53:56;7.00;;;3.90;;
19127;SDS011;9696;53.686;10.094;2022-12-18T06:56:26;10.13;;;5.57;;
19127;SDS011;9696;53.686;10.094;2022-12-18T06:58:56;14.30;;;3.77;;
19127;SDS011;9696;53.686;10.094;2022-12-18T07:01:25;21.40;;;7.63;;
19127;SDS011;9696;53.686;10.094;2022-12-18T07:03:55;8.93;;;4.37;;
19127;SDS011;9696;53.686;10.094;2022-12-18T07:06:25;9.10;;;5.00;;
19127;SDS011;9696;53.686;10.094;2022-12-18T07:08:54;11.20;;;4.27;;
19127;SDS011;9696;53.686;10.094;2022-12-18T07:11:24;6.60;;;3.80;;
19127;SDS011;9696;53.686;10.094;2022-12-18T07:13:54;11.83;;;6.70;;
19127;SDS011;9696;53.686;10.094;2022-12-18T07:16:23;6.17;;;4.10;;
19127;SDS011;9696;53.686;10.094;2022-12-18T07:18:53;9.90;;;4.50;;
19127;SDS011;9696;53.686;10.094;2022-12-18T07:21:23;7.50;;;4.33;;
19127;SDS011;9696;53.686;10.094;2022-12-18T07:23:53;7.33;;;3.87;;
19127;SDS011;9696;53.686;10.094;2022-12-18T07:26:22;8.20;;;4.60;;
19127;SDS011;9696;53.686;10.094;2022-12-18T07:28:57;8.33;;;4.37;;
19127;SDS011;9696;53.686;10.094;2022-12-18T07:31:26;7.53;;;3.93;;
19127;SDS011;9696;53.686;10.094;2022-12-18T07:33:55;8.07;;;3.83;;
19127;SDS011;9696;53.686;10.094;2022-12-18T07:36:24;21.53;;;5.87;;
19127;SDS011;9696;53.686;10.094;2022-12-18T07:38:54;7.83;;;4.93;;
19127;SDS011;9696;53.686;10.094;2022-12-18T07:41:23;18.93;;;7.03;;
19127;SDS011;9696;53.686;10.094;2022-12-18T07:43:53;5.40;;;3.27;;
19127;SDS011;9696;53.686;10.094;2022-12-18T07:46:23;12.30;;;5.27;;
19127;SDS011;9696;53.686;10.094;2022-12-18T07:48:52;9.90;;;5.90;;
19127;SDS011;9696;53.686;10.094;2022-12-18T07:51:21;15.97;;;5.17;;
19127;SDS011;9696;53.686;10.094;2022-12-18T07:53:51;13.17;;;5.00;;
19127;SDS011;9696;53.686;10.094;2022-12-18T07:56:20;7.10;;;3.87;;
19127;SDS011;9696;53.686;10.094;2022-12-18T07:58:56;11.20;;;5.43;;
19127;SDS011;9696;53.686;10.094;2022-12-18T08:01:25;8.13;;;4.07;;
19127;SDS011;9696;53.686;10.094;2022-12-18T08:03:55;9.90;;;5.87;;
19127;SDS011;9696;53.686;10.094;2022-12-18T08:06:25;10.20;;;5.60;;
19127;SDS011;9696;53.686;10.094;2022-12-18T08:08:55;13.23;;;4.57;;
19127;SDS011;9696;53.686;10.094;2022-12-18T08:11:25;10.57;;;5.77;;
19127;SDS011;9696;53.686;10.094;2022-12-18T08:13:57;23.60;;;7.77;;
19127;SDS011;9696;53.686;10.094;2022-12-18T08:16:26;13.97;;;6.17;;
19127;SDS011;9696;53.686;10.094;2022-12-18T08:18:56;17.63;;;5.77;;
19127;SDS011;9696;53.686;10.094;2022-12-18T08:21:26;16.20;;;5.53;;
19127;SDS011;9696;53.686;10.094;2022-12-18T08:23:57;14.00;;;6.40;;
19127;SDS011;9696;53.686;10.094;2022-12-18T08:26:28;13.77;;;6.13;;
19127;SDS011;9696;53.686;10.094;2022-12-18T08:28:59;12.97;;;6.43;;
19127;SDS011;9696;53.686;10.094;2022-12-18T08:31:29;17.20;;;8.03;;
19127;SDS011;9696;53.686;10.094;2022-12-18T08:33:59;15.50;;;7.30;;
19127;SDS011;9696;53.686;10.094;2022-12-18T08:36:29;26.70;;;10.33;;
19127;SDS011;9696;53.686;10.094;2022-12-18T08:38:58;17.90;;;8.80;;
19127;SDS011;9696;53.686;10.094;2022-12-18T08:41:27;12.50;;;6.10;;
19127;SDS011;9696;53.686;10.094;2022-12-18T08:43:57;13.07;;;6.97;;
19127;SDS011;9696;53.686;10.094;2022-12-18T08:46:44;15.10;;;7.57;;
19127;SDS011;9696;53.686;10.094;2022-12-18T08:49:14;12.67;;;7.97;;
19127;SDS011;9696;53.686;10.094;2022-12-18T08:51:43;18.00;;;7.23;;
19127;SDS011;9696;53.686;10.094;2022-12-18T08:54:12;20.67;;;8.17;;
19127;SDS011;9696;53.686;10.094;2022-12-18T08:56:41;12.13;;;7.37;;
19127;SDS011;9696;53.686;10.094;2022-12-18T08:59:11;13.43;;;7.93;;
19127;SDS011;9696;53.686;10.094;2022-12-18T09:01:47;17.87;;;8.67;;
19127;SDS011;9696;53.686;10.094;2022-12-18T09:04:16;32.00;;;11.23;;
19127;SDS011;9696;53.686;10.094;2022-12-18T09:06:52;38.80;;;14.60;;
19127;SDS011;9696;53.686;10.094;2022-12-18T09:09:21;28.40;;;11.73;;
19127;SDS011;9696;53.686;10.094;2022-12-18T09:11:50;30.63;;;11.33;;
19127;SDS011;9696;53.686;10.094;2022-12-18T09:14:19;27.37;;;9.97;;
19127;SDS011;9696;53.686;10.094;2022-12-18T09:16:50;21.07;;;9.07;;
19127;SDS011;9696;53.686;10.094;2022-12-18T09:19:19;27.77;;;11.60;;
19127;SDS011;9696;53.686;10.094;2022-12-18T09:21:48;19.77;;;9.37;;
19127;SDS011;9696;53.686;10.094;2022-12-18T09:24:17;21.27;;;9.37;;
19127;SDS011;9696;53.686;10.094;2022-12-18T09:26:47;23.30;;;10.73;;
19127;SDS011;9696;53.686;10.094;2022-12-18T09:29:23;20.30;;;8.07;;
19127;SDS011;9696;53.686;10.094;2022-12-18T09:31:53;19.40;;;8.57;;
19127;SDS011;9696;53.686;10.094;2022-12-18T09:34:23;20.50;;;8.43;;
19127;SDS011;9696;53.686;10.094;2022-12-18T09:36:52;16.50;;;8.37;;
19127;SDS011;9696;53.686;10.094;2022-12-18T09:39:21;17.87;;;10.33;;
19127;SDS011;9696;53.686;10.094;2022-12-18T09:41:51;16.37;;;8.00;;
19127;SDS011;9696;53.686;10.094;2022-12-18T09:44:24;17.60;;;9.10;;
19127;SDS011;9696;53.686;10.094;2022-12-18T09:47:07;16.90;;;8.40;;
19127;SDS011;9696;53.686;10.094;2022-12-18T09:49:42;13.03;;;6.63;;
19127;SDS011;9696;53.686;10.094;2022-12-18T09:52:14;14.30;;;6.93;;
19127;SDS011;9696;53.686;10.094;2022-12-18T09:54:48;13.37;;;6.63;;
19127;SDS011;9696;53.686;10.094;2022-12-18T09:57:22;15.03;;;7.40;;
19127;SDS011;9696;53.686;10.094;2022-12-18T09:59:54;13.57;;;6.43;;
19127;SDS011;9696;53.686;10.094;2022-12-18T10:02:29;14.53;;;7.03;;
19127;SDS011;9696;53.686;10.094;2022-12-18T10:05:02;13.80;;;7.20;;
19127;SDS011;9696;53.686;10.094;2022-12-18T10:07:46;14.33;;;6.43;;
19127;SDS011;9696;53.686;10.094;2022-12-18T10:10:23;11.77;;;5.93;;
19127;SDS011;9696;53.686;10.094;2022-12-18T10:13:02;20.00;;;10.23;;
19127;SDS011;9696;53.686;10.094;2022-12-18T10:15:39;17.93;;;7.93;;
19127;SDS011;9696;53.686;10.094;2022-12-18T10:18:23;19.70;;;8.83;;
19127;SDS011;9696;53.686;10.094;2022-12-18T10:21:07;12.60;;;7.10;;
19127;SDS011;9696;53.686;10.094;2022-12-18T10:23:42;13.67;;;6.97;;
19127;SDS011;9696;53.686;10.094;2022-12-18T10:26:19;16.70;;;7.03;;
19127;SDS011;9696;53.686;10.094;2022-12-18T10:28:48;15.33;;;6.67;;
19127;SDS011;9696;53.686;10.094;2022-12-18T10:31:20;18.60;;;8.47;;
19127;SDS011;9696;53.686;10.094;2022-12-18T10:33:52;29.27;;;9.17;;
19127;SDS011;9696;53.686;10.094;2022-12-18T10:36:24;24.63;;;9.63;;
19127;SDS011;9696;53.686;10.094;2022-12-18T10:38:53;20.33;;;8.30;;
19127;SDS011;9696;53.686;10.094;2022-12-18T10:41:41;20.50;;;8.03;;
19127;SDS011;9696;53.686;10.094;2022-12-18T10:44:16;22.63;;;7.87;;
19127;SDS011;9696;53.686;10.094;2022-12-18T10:46:48;19.23;;;7.93;;
19127;SDS011;9696;53.686;10.094;2022-12-18T10:49:21;18.93;;;7.27;;
19127;SDS011;9696;53.686;10.094;2022-12-18T10:52:03;21.43;;;7.77;;
19127;SDS011;9696;53.686;10.094;2022-12-18T10:54:35;13.97;;;6.40;;
19127;SDS011;9696;53.686;10.094;2022-12-18T10:57:16;17.63;;;5.90;;
19127;SDS011;9696;53.686;10.094;2022-12-18T10:59:56;12.20;;;6.13;;
19127;SDS011;9696;53.686;10.094;2022-12-18T11:02:28;20.23;;;6.70;;
19127;SDS011;9696;53.686;10.094;2022-12-18T11:05:07;15.33;;;7.03;;
19127;SDS011;9696;53.686;10.094;2022-12-18T11:07:54;10.10;;;4.60;;
19127;SDS011;9696;53.686;10.094;2022-12-18T11:10:25;16.80;;;7.17;;
19127;SDS011;9696;53.686;10.094;2022-12-18T11:13:08;12.50;;;5.63;;
19127;SDS011;9696;53.686;10.094;2022-12-18T11:15:45;11.03;;;6.00;;
19127;SDS011;9696;53.686;10.094;2022-12-18T11:18:18;8.37;;;4.80;;
19127;SDS011;9696;53.686;10.094;2022-12-18T11:20:54;12.37;;;4.97;;
19127;SDS011;9696;53.686;10.094;2022-12-18T11:23:26;12.40;;;6.13;;
19127;SDS011;9696;53.686;10.094;2022-12-18T11:25:56;17.13;;;5.77;;
19127;SDS011;9696;53.686;10.094;2022-12-18T11:28:28;11.77;;;5.40;;
19127;SDS011;9696;53.686;10.094;2022-12-18T11:31:17;10.90;;;4.57;;
19127;SDS011;9696;53.686;10.094;2022-12-18T11:33:51;8.77;;;5.03;;
19127;SDS011;9696;53.686;10.094;2022-12-18T11:36:49;15.13;;;6.37;;
19127;SDS011;9696;53.686;10.094;2022-12-18T11:39:20;25.43;;;10.17;;
19127;SDS011;9696;53.686;10.094;2022-12-18T11:41:59;14.10;;;6.57;;
19127;SDS011;9696;53.686;10.094;2022-12-18T11:44:44;14.37;;;6.87;;
19127;SDS011;9696;53.686;10.094;2022-12-18T11:47:20;11.23;;;5.73;;
19127;SDS011;9696;53.686;10.094;2022-12-18T11:49:58;13.03;;;6.50;;
19127;SDS011;9696;53.686;10.094;2022-12-18T11:52:31;17.83;;;7.10;;
19127;SDS011;9696;53.686;10.094;2022-12-18T11:55:10;14.83;;;6.30;;
19127;SDS011;9696;53.686;10.094;2022-12-18T11:57:44;11.33;;;5.73;;
19127;SDS011;9696;53.686;10.094;2022-12-18T12:00:22;14.33;;;5.37;;
19127;SDS011;9696;53.686;10.094;2022-12-18T12:02:58;14.87;;;7.13;;
19127;SDS011;9696;53.686;10.094;2022-12-18T12:05:41;11.67;;;5.53;;
19127;SDS011;9696;53.686;10.094;2022-12-18T12:08:22;11.07;;;6.10;;
19127;SDS011;9696;53.686;10.094;2022-12-18T12:11:02;14.53;;;6.03;;
19127;SDS011;9696;53.686;10.094;2022-12-18T12:13:41;15.33;;;6.13;;
19127;SDS011;9696;53.686;10.094;2022-12-18T12:16:19;15.37;;;5.53;;
19127;SDS011;9696;53.686;10.094;2022-12-18T12:18:56;11.10;;;5.17;;
19127;SDS011;9696;53.686;10.094;2022-12-18T12:21:42;9.43;;;5.20;;
19127;SDS011;9696;53.686;10.094;2022-12-18T12:24:22;18.30;;;6.47;;
19127;SDS011;9696;53.686;10.094;2022-12-18T12:27:02;15.63;;;7.37;;
19127;SDS011;9696;53.686;10.094;2022-12-18T12:29:43;12.30;;;5.70;;
19127;SDS011;9696;53.686;10.094;2022-12-18T12:32:27;17.17;;;5.93;;
19127;SDS011;9696;53.686;10.094;2022-12-18T12:35:14;8.80;;;4.97;;
19127;SDS011;9696;53.686;10.094;2022-12-18T12:37:53;22.87;;;7.50;;
19127;SDS011;9696;53.686;10.094;2022-12-18T12:40:34;12.43;;;6.03;;
19127;SDS011;9696;53.686;10.094;2022-12-18T12:43:25;12.20;;;5.33;;
19127;SDS011;9696;53.686;10.094;2022-12-18T12:46:00;14.17;;;6.27;;
19127;SDS011;9696;53.686;10.094;2022-12-18T12:48:35;8.87;;;3.93;;
19127;SDS011;9696;53.686;10.094;2022-12-18T12:51:14;12.07;;;5.20;;
19127;SDS011;9696;53.686;10.094;2022-12-18T12:53:48;12.30;;;5.00;;
19127;SDS011;9696;53.686;10.094;2022-12-18T12:56:20;13.23;;;6.50;;
19127;SDS011;9696;53.686;10.094;2022-12-18T12:58:53;11.20;;;5.10;;
19127;SDS011;9696;53.686;10.094;2022-12-18T13:01:32;15.17;;;6.60;;
19127;SDS011;9696;53.686;10.094;2022-12-18T13:04:10;12.27;;;5.30;;
19127;SDS011;9696;53.686;10.094;2022-12-18T13:06:50;11.83;;;6.07;;
19127;SDS011;9696;53.686;10.094;2022-12-18T13:09:29;10.27;;;5.13;;
19127;SDS011;9696;53.686;10.094;2022-12-18T13:12:04;14.43;;;6.17;;
19127;SDS011;9696;53.686;10.094;2022-12-18T13:15:11;11.50;;;5.80;;
19127;SDS011;9696;53.686;10.094;2022-12-18T13:17:48;15.73;;;5.30;;
19127;SDS011;9696;53.686;10.094;2022-12-18T13:20:32;20.00;;;6.27;;
19127;SDS011;9696;53.686;10.094;2022-12-18T13:25:48;18.10;;;7.47;;
19127;SDS011;9696;53.686;10.094;2022-12-18T13:28:21;14.23;;;5.87;;
19127;SDS011;9696;53.686;10.094;2022-12-18T13:31:12;19.40;;;7.13;;
19127;SDS011;9696;53.686;10.094;2022-12-18T13:33:42;16.13;;;5.80;;
19127;SDS011;9696;53.686;10.094;2022-12-18T13:36:32;18.77;;;8.13;;
19127;SDS011;9696;53.686;10.094;2022-12-18T13:39:20;13.50;;;6.73;;
19127;SDS011;9696;53.686;10.094;2022-12-18T13:48:29;13.93;;;5.90;;
19127;SDS011;9696;53.686;10.094;2022-12-18T13:51:01;15.17;;;6.97;;
19127;SDS011;9696;53.686;10.094;2022-12-18T13:53:33;13.57;;;6.53;;
19127;SDS011;9696;53.686;10.094;2022-12-18T13:56:07;12.97;;;6.43;;
19127;SDS011;9696;53.686;10.094;2022-12-18T13:58:36;22.23;;;7.43;;
19127;SDS011;9696;53.686;10.094;2022-12-18T14:01:14;18.50;;;7.20;;
19127;SDS011;9696;53.686;10.094;2022-12-18T14:03:51;15.33;;;6.67;;
19127;SDS011;9696;53.686;10.094;2022-12-18T14:06:35;18.17;;;7.37;;
19127;SDS011;9696;53.686;10.094;2022-12-18T14:09:04;17.90;;;7.83;;
19127;SDS011;9696;53.686;10.094;2022-12-18T14:11:35;18.80;;;7.40;;
19127;SDS011;9696;53.686;10.094;2022-12-18T14:14:08;17.07;;;7.03;;
19127;SDS011;9696;53.686;10.094;2022-12-18T14:16:43;16.77;;;6.27;;
19127;SDS011;9696;53.686;10.094;2022-12-18T14:19:15;19.43;;;7.33;;
19127;SDS011;9696;53.686;10.094;2022-12-18T14:21:46;17.93;;;8.30;;
19127;SDS011;9696;53.686;10.094;2022-12-18T14:24:17;21.40;;;8.30;;
19127;SDS011;9696;53.686;10.094;2022-12-18T14:26:49;20.67;;;6.37;;
19127;SDS011;9696;53.686;10.094;2022-12-18T14:29:20;16.50;;;7.33;;
19127;SDS011;9696;53.686;10.094;2022-12-18T14:32:05;17.53;;;7.53;;
19127;SDS011;9696;53.686;10.094;2022-12-18T14:34:44;21.93;;;8.10;;
19127;SDS011;9696;53.686;10.094;2022-12-18T14:37:15;25.13;;;7.77;;
19127;SDS011;9696;53.686;10.094;2022-12-18T14:39:55;19.53;;;7.60;;
19127;SDS011;9696;53.686;10.094;2022-12-18T14:42:30;18.93;;;8.17;;
19127;SDS011;9696;53.686;10.094;2022-12-18T14:48:13;16.30;;;7.27;;
19127;SDS011;9696;53.686;10.094;2022-12-18T14:50:59;19.17;;;7.60;;
19127;SDS011;9696;53.686;10.094;2022-12-18T14:53:34;19.23;;;8.17;;
19127;SDS011;9696;53.686;10.094;2022-12-18T14:56:13;22.43;;;7.37;;
19127;SDS011;9696;53.686;10.094;2022-12-18T14:58:45;14.47;;;6.87;;
19127;SDS011;9696;53.686;10.094;2022-12-18T15:01:23;22.20;;;8.67;;
19127;SDS011;9696;53.686;10.094;2022-12-18T15:03:56;18.77;;;7.83;;
19127;SDS011;9696;53.686;10.094;2022-12-18T15:06:28;17.10;;;6.50;;
19127;SDS011;9696;53.686;10.094;2022-12-18T15:08:59;24.97;;;8.53;;
19127;SDS011;9696;53.686;10.094;2022-12-18T15:11:34;19.50;;;7.60;;
19127;SDS011;9696;53.686;10.094;2022-12-18T15:17:12;18.50;;;7.77;;
19127;SDS011;9696;53.686;10.094;2022-12-18T15:19:46;22.30;;;8.20;;
19127;SDS011;9696;53.686;10.094;2022-12-18T15:22:19;23.17;;;8.60;;
19127;SDS011;9696;53.686;10.094;2022-12-18T15:24:50;24.83;;;10.33;;
19127;SDS011;9696;53.686;10.094;2022-12-18T15:27:22;18.70;;;8.90;;